Capitol, Virginia
Current Conditions -  °F | °C
As of 12:54 PM on Monday 24 Nov 2014 (Local Time) from KRIC Reporting Station
Few Clouds Few Clouds  
Wind Chill: 74°   Ceiling: Unl
Heat Index: 74°   Visibility: 10mi
Dew Point: 55°   Wind: 24mph
Humidity: 52%   Direction: 190°S
Pressure: 29.7"   Gusts: 32mph
Location:  37.5411°N, 77.4346°W
Report Text: KRIC 241754Z 19021G28KT 10SM FEW035 23/13 A2970 RMK AO2 PK WND 20031/1713 SLP061 T02330128 10233 20183 58022
Loading
Personal Weather Stations






























Interactive Weather Map New forecast layout! Learn more

10-Day Weather Forecast

Advertisements
Track Severe Weather on mobile